sensor_id;sensor_type;location;lat;lon;timestamp;pressure;altitude;pressure_sealevel;temperature;humidity
69630;BME280;56857;52.212;5.496;2022-12-29T00:00:04;99979.78;;;9.32;100.00
69630;BME280;56857;52.212;5.496;2022-12-29T00:02:31;99979.41;;;9.35;100.00
69630;BME280;56857;52.212;5.496;2022-12-29T00:04:56;99957.44;;;9.34;100.00
69630;BME280;56857;52.212;5.496;2022-12-29T00:07:22;99949.28;;;9.36;100.00
69630;BME280;56857;52.212;5.496;2022-12-29T00:09:48;99944.66;;;9.38;100.00
69630;BME280;56857;52.212;5.496;2022-12-29T00:12:14;99940.19;;;9.38;100.00
69630;BME280;56857;52.212;5.496;2022-12-29T00:14:40;99939.81;;;9.41;100.00
69630;BME280;56857;52.212;5.496;2022-12-29T00:17:06;99925.41;;;9.44;100.00
69630;BME280;56857;52.212;5.496;2022-12-29T00:19:32;99940.25;;;9.45;100.00
69630;BME280;56857;52.212;5.496;2022-12-29T00:21:58;99932.78;;;9.48;100.00
69630;BME280;56857;52.212;5.496;2022-12-29T00:24:24;99938.91;;;9.49;100.00
69630;BME280;56857;52.212;5.496;2022-12-29T00:29:28;99909.63;;;9.50;100.00
69630;BME280;56857;52.212;5.496;2022-12-29T00:31:54;99919.81;;;9.54;100.00
69630;BME280;56857;52.212;5.496;2022-12-29T00:34:20;99913.72;;;9.53;100.00
69630;BME280;56857;52.212;5.496;2022-12-29T00:36:45;99916.97;;;9.55;100.00
69630;BME280;56857;52.212;5.496;2022-12-29T00:39:14;99905.41;;;9.56;100.00
69630;BME280;56857;52.212;5.496;2022-12-29T00:41:42;99904.41;;;9.57;100.00
69630;BME280;56857;52.212;5.496;2022-12-29T00:44:09;99907.69;;;9.59;100.00
69630;BME280;56857;52.212;5.496;2022-12-29T00:46:36;99909.31;;;9.60;100.00
69630;BME280;56857;52.212;5.496;2022-12-29T00:49:03;99904.66;;;9.62;100.00
69630;BME280;56857;52.212;5.496;2022-12-29T00:51:29;99894.69;;;9.64;100.00
69630;BME280;56857;52.212;5.496;2022-12-29T00:53:55;99893.06;;;9.63;100.00
69630;BME280;56857;52.212;5.496;2022-12-29T00:56:21;99878.81;;;9.64;100.00
69630;BME280;56857;52.212;5.496;2022-12-29T00:58:46;99877.41;;;9.62;100.00
69630;BME280;56857;52.212;5.496;2022-12-29T01:01:12;99861.31;;;9.63;100.00
69630;BME280;56857;52.212;5.496;2022-12-29T01:03:38;99861.31;;;9.63;100.00
69630;BME280;56857;52.212;5.496;2022-12-29T01:06:07;99866.63;;;9.63;100.00
69630;BME280;56857;52.212;5.496;2022-12-29T01:08:34;99857.47;;;9.66;100.00
69630;BME280;56857;52.212;5.496;2022-12-29T01:11:08;99860.78;;;9.68;100.00
69630;BME280;56857;52.212;5.496;2022-12-29T01:13:34;99863.59;;;9.66;100.00
69630;BME280;56857;52.212;5.496;2022-12-29T01:16:01;99856.84;;;9.64;100.00
69630;BME280;56857;52.212;5.496;2022-12-29T01:18:27;99848.09;;;9.63;100.00
69630;BME280;56857;52.212;5.496;2022-12-29T01:21:00;99844.00;;;9.61;100.00
69630;BME280;56857;52.212;5.496;2022-12-29T01:23:27;99847.28;;;9.63;100.00
69630;BME280;56857;52.212;5.496;2022-12-29T01:25:53;99843.81;;;9.62;100.00
69630;BME280;56857;52.212;5.496;2022-12-29T01:28:21;99852.75;;;9.61;100.00
69630;BME280;56857;52.212;5.496;2022-12-29T01:30:47;99859.03;;;9.60;100.00
69630;BME280;56857;52.212;5.496;2022-12-29T01:33:13;99851.47;;;9.57;100.00
69630;BME280;56857;52.212;5.496;2022-12-29T01:35:39;99838.00;;;9.52;100.00
69630;BME280;56857;52.212;5.496;2022-12-29T01:38:08;99849.78;;;9.49;100.00
69630;BME280;56857;52.212;5.496;2022-12-29T01:40:33;99839.38;;;9.48;100.00
69630;BME280;56857;52.212;5.496;2022-12-29T01:43:01;99848.31;;;9.47;100.00
69630;BME280;56857;52.212;5.496;2022-12-29T01:45:27;99851.34;;;9.44;100.00
69630;BME280;56857;52.212;5.496;2022-12-29T01:47:58;99847.06;;;9.43;100.00
69630;BME280;56857;52.212;5.496;2022-12-29T01:50:32;99842.75;;;9.42;100.00
69630;BME280;56857;52.212;5.496;2022-12-29T01:53:02;99849.06;;;9.41;100.00
69630;BME280;56857;52.212;5.496;2022-12-29T01:55:35;99857.38;;;9.38;100.00
69630;BME280;56857;52.212;5.496;2022-12-29T01:58:04;99856.56;;;9.37;100.00
69630;BME280;56857;52.212;5.496;2022-12-29T02:00:31;99853.72;;;9.39;100.00
69630;BME280;56857;52.212;5.496;2022-12-29T02:02:58;99848.41;;;9.39;100.00
69630;BME280;56857;52.212;5.496;2022-12-29T02:05:37;99852.25;;;9.36;100.00
69630;BME280;56857;52.212;5.496;2022-12-29T02:08:05;99852.91;;;9.38;100.00
69630;BME280;56857;52.212;5.496;2022-12-29T02:10:33;99852.91;;;9.38;100.00
69630;BME280;56857;52.212;5.496;2022-12-29T02:13:00;99846.16;;;9.36;100.00
69630;BME280;56857;52.212;5.496;2022-12-29T02:15:50;99844.16;;;9.38;100.00
69630;BME280;56857;52.212;5.496;2022-12-29T02:23:57;99860.19;;;9.36;100.00
69630;BME280;56857;52.212;5.496;2022-12-29T02:32:13;99860.47;;;9.41;100.00
69630;BME280;56857;52.212;5.496;2022-12-29T02:37:42;99866.41;;;9.43;100.00
69630;BME280;56857;52.212;5.496;2022-12-29T02:40:26;99856.00;;;9.42;100.00
69630;BME280;56857;52.212;5.496;2022-12-29T02:43:10;99855.16;;;9.41;100.00
69630;BME280;56857;52.212;5.496;2022-12-29T02:45:54;99848.25;;;9.40;100.00
69630;BME280;56857;52.212;5.496;2022-12-29T02:51:35;99837.41;;;9.35;100.00
69630;BME280;56857;52.212;5.496;2022-12-29T02:54:00;99838.22;;;9.36;100.00
69630;BME280;56857;52.212;5.496;2022-12-29T02:56:26;99836.38;;;9.36;100.00
69630;BME280;56857;52.212;5.496;2022-12-29T02:58:52;99831.09;;;9.36;100.00
69630;BME280;56857;52.212;5.496;2022-12-29T03:12:07;99844.06;;;9.31;100.00
69630;BME280;56857;52.212;5.496;2022-12-29T03:15:01;99855.66;;;9.30;100.00
69630;BME280;56857;52.212;5.496;2022-12-29T03:17:38;99843.44;;;9.29;100.00
69630;BME280;56857;52.212;5.496;2022-12-29T03:20:11;99841.97;;;9.26;100.00
69630;BME280;56857;52.212;5.496;2022-12-29T03:22:43;99854.22;;;9.27;100.00
69630;BME280;56857;52.212;5.496;2022-12-29T03:27:40;99844.00;;;9.24;100.00
69630;BME280;56857;52.212;5.496;2022-12-29T03:30:07;99843.63;;;9.27;100.00
69630;BME280;56857;52.212;5.496;2022-12-29T03:32:50;99834.88;;;9.27;100.00
69630;BME280;56857;52.212;5.496;2022-12-29T03:35:21;99830.94;;;9.23;100.00
69630;BME280;56857;52.212;5.496;2022-12-29T03:37:58;99835.63;;;9.21;100.00
69630;BME280;56857;52.212;5.496;2022-12-29T03:40:26;99841.53;;;9.23;100.00
69630;BME280;56857;52.212;5.496;2022-12-29T03:42:53;99831.97;;;9.22;100.00
69630;BME280;56857;52.212;5.496;2022-12-29T03:45:19;99832.78;;;9.22;100.00
69630;BME280;56857;52.212;5.496;2022-12-29T03:47:45;99835.41;;;9.22;100.00
69630;BME280;56857;52.212;5.496;2022-12-29T03:50:12;99841.06;;;9.19;100.00
69630;BME280;56857;52.212;5.496;2022-12-29T03:52:38;99830.88;;;9.16;100.00
69630;BME280;56857;52.212;5.496;2022-12-29T03:55:04;99833.50;;;9.16;100.00
69630;BME280;56857;52.212;5.496;2022-12-29T03:57:31;99834.69;;;9.14;100.00
69630;BME280;56857;52.212;5.496;2022-12-29T03:59:57;99839.16;;;9.13;100.00
69630;BME280;56857;52.212;5.496;2022-12-29T04:02:23;99839.97;;;9.14;100.00
69630;BME280;56857;52.212;5.496;2022-12-29T04:04:49;99832.41;;;9.11;100.00
69630;BME280;56857;52.212;5.496;2022-12-29T04:07:15;99829.16;;;9.09;100.00
69630;BME280;56857;52.212;5.496;2022-12-29T04:09:41;99821.59;;;9.05;100.00
69630;BME280;56857;52.212;5.496;2022-12-29T04:12:07;99828.44;;;9.00;100.00
69630;BME280;56857;52.212;5.496;2022-12-29T04:14:33;99833.72;;;9.00;100.00
69630;BME280;56857;52.212;5.496;2022-12-29T04:16:59;99841.66;;;9.00;100.00
69630;BME280;56857;52.212;5.496;2022-12-29T04:19:24;99838.34;;;8.98;100.00
69630;BME280;56857;52.212;5.496;2022-12-29T04:21:50;99848.94;;;8.98;100.00
69630;BME280;56857;52.212;5.496;2022-12-29T04:24:17;99847.31;;;8.97;100.00
69630;BME280;56857;52.212;5.496;2022-12-29T04:26:43;99863.97;;;8.97;100.00
69630;BME280;56857;52.212;5.496;2022-12-29T04:29:09;99861.34;;;8.97;100.00
69630;BME280;56857;52.212;5.496;2022-12-29T04:31:36;99866.44;;;8.99;100.00
69630;BME280;56857;52.212;5.496;2022-12-29T04:34:02;99875.81;;;9.01;100.00
69630;BME280;56857;52.212;5.496;2022-12-29T04:36:28;99876.66;;;9.02;100.00
69630;BME280;56857;52.212;5.496;2022-12-29T04:38:54;99872.00;;;9.04;100.00
69630;BME280;56857;52.212;5.496;2022-12-29T04:41:20;99858.16;;;9.02;100.00
69630;BME280;56857;52.212;5.496;2022-12-29T04:43:46;99869.34;;;9.04;100.00
69630;BME280;56857;52.212;5.496;2022-12-29T04:46:11;99884.41;;;9.03;100.00
69630;BME280;56857;52.212;5.496;2022-12-29T04:48:37;99884.41;;;9.03;100.00
69630;BME280;56857;52.212;5.496;2022-12-29T04:51:03;99878.28;;;9.03;100.00
69630;BME280;56857;52.212;5.496;2022-12-29T04:53:30;99875.44;;;9.04;100.00
69630;BME280;56857;52.212;5.496;2022-12-29T04:55:56;99889.50;;;9.05;100.00
69630;BME280;56857;52.212;5.496;2022-12-29T04:58:22;99877.84;;;8.99;100.00
69630;BME280;56857;52.212;5.496;2022-12-29T05:00:50;99876.47;;;9.03;100.00
69630;BME280;56857;52.212;5.496;2022-12-29T05:03:17;99882.19;;;9.07;100.00
69630;BME280;56857;52.212;5.496;2022-12-29T05:05:42;99885.50;;;9.09;100.00
69630;BME280;56857;52.212;5.496;2022-12-29T05:08:08;99889.16;;;9.08;100.00
69630;BME280;56857;52.212;5.496;2022-12-29T05:10:34;99894.97;;;9.03;100.00
69630;BME280;56857;52.212;5.496;2022-12-29T05:13:00;99899.81;;;9.00;100.00
69630;BME280;56857;52.212;5.496;2022-12-29T05:15:26;99903.81;;;8.96;100.00
69630;BME280;56857;52.212;5.496;2022-12-29T05:17:52;99905.81;;;8.94;100.00
69630;BME280;56857;52.212;5.496;2022-12-29T05:20:18;99896.06;;;8.94;100.00
69630;BME280;56857;52.212;5.496;2022-12-29T05:22:44;99890.16;;;8.92;100.00
69630;BME280;56857;52.212;5.496;2022-12-29T05:25:10;99896.16;;;8.86;100.00
69630;BME280;56857;52.212;5.496;2022-12-29T05:27:36;99899.63;;;8.87;100.00
69630;BME280;56857;52.212;5.496;2022-12-29T05:30:03;99904.91;;;8.87;100.00
69630;BME280;56857;52.212;5.496;2022-12-29T05:32:29;99898.97;;;8.85;100.00
69630;BME280;56857;52.212;5.496;2022-12-29T05:34:55;99905.88;;;8.86;100.00
69630;BME280;56857;52.212;5.496;2022-12-29T05:37:21;99910.72;;;8.82;100.00
69630;BME280;56857;52.212;5.496;2022-12-29T05:39:47;99918.75;;;8.89;100.00
69630;BME280;56857;52.212;5.496;2022-12-29T05:42:13;99913.66;;;8.87;100.00
69630;BME280;56857;52.212;5.496;2022-12-29T05:44:38;99927.03;;;8.86;100.00
69630;BME280;56857;52.212;5.496;2022-12-29T05:47:04;99920.94;;;8.85;100.00
69630;BME280;56857;52.212;5.496;2022-12-29T05:49:30;99919.28;;;8.84;100.00
69630;BME280;56857;52.212;5.496;2022-12-29T05:51:56;99918.03;;;8.80;100.00
69630;BME280;56857;52.212;5.496;2022-12-29T05:54:22;99919.19;;;8.77;100.00
69630;BME280;56857;52.212;5.496;2022-12-29T05:56:48;99912.44;;;8.75;100.00
69630;BME280;56857;52.212;5.496;2022-12-29T05:59:14;99918.38;;;8.77;100.00
69630;BME280;56857;52.212;5.496;2022-12-29T06:01:40;99913.25;;;8.75;100.00
69630;BME280;56857;52.212;5.496;2022-12-29T06:04:06;99916.63;;;8.69;100.00
69630;BME280;56857;52.212;5.496;2022-12-29T06:06:32;99916.16;;;8.66;100.00
69630;BME280;56857;52.212;5.496;2022-12-29T06:08:58;99923.44;;;8.64;100.00
69630;BME280;56857;52.212;5.496;2022-12-29T06:11:24;99932.22;;;8.64;100.00
69630;BME280;56857;52.212;5.496;2022-12-29T06:13:49;99941.81;;;8.57;100.00
69630;BME280;56857;52.212;5.496;2022-12-29T06:16:15;99933.91;;;8.57;100.00
69630;BME280;56857;52.212;5.496;2022-12-29T06:18:41;99933.28;;;8.55;100.00
69630;BME280;56857;52.212;5.496;2022-12-29T06:21:07;99926.88;;;8.49;100.00
69630;BME280;56857;52.212;5.496;2022-12-29T06:23:33;99932.97;;;8.50;100.00
69630;BME280;56857;52.212;5.496;2022-12-29T06:25:59;99941.56;;;8.52;100.00
69630;BME280;56857;52.212;5.496;2022-12-29T06:28:25;99937.59;;;8.48;100.00
69630;BME280;56857;52.212;5.496;2022-12-29T06:30:51;99934.97;;;8.48;100.00
69630;BME280;56857;52.212;5.496;2022-12-29T06:33:17;99941.25;;;8.47;100.00
69630;BME280;56857;52.212;5.496;2022-12-29T06:35:44;99948.38;;;8.46;100.00
69630;BME280;56857;52.212;5.496;2022-12-29T06:38:10;99956.66;;;8.43;100.00
69630;BME280;56857;52.212;5.496;2022-12-29T06:40:36;99950.91;;;8.40;100.00
69630;BME280;56857;52.212;5.496;2022-12-29T06:43:01;99957.19;;;8.39;100.00
69630;BME280;56857;52.212;5.496;2022-12-29T06:45:27;99954.88;;;8.35;100.00
69630;BME280;56857;52.212;5.496;2022-12-29T06:47:53;99958.03;;;8.31;100.00
69630;BME280;56857;52.212;5.496;2022-12-29T06:50:19;99964.47;;;8.28;100.00
69630;BME280;56857;52.212;5.496;2022-12-29T06:52:45;99956.75;;;8.27;100.00
69630;BME280;56857;52.212;5.496;2022-12-29T06:55:11;99965.63;;;8.26;100.00
69630;BME280;56857;52.212;5.496;2022-12-29T06:57:37;99962.38;;;8.24;100.00
69630;BME280;56857;52.212;5.496;2022-12-29T07:00:04;99958.91;;;8.23;100.00
69630;BME280;56857;52.212;5.496;2022-12-29T07:02:30;99963.34;;;8.23;100.00
69630;BME280;56857;52.212;5.496;2022-12-29T07:04:56;99945.06;;;8.21;100.00
69630;BME280;56857;52.212;5.496;2022-12-29T07:07:22;99943.88;;;8.24;100.00
69630;BME280;56857;52.212;5.496;2022-12-29T07:09:48;99957.91;;;8.24;100.00
69630;BME280;56857;52.212;5.496;2022-12-29T07:12:13;99966.28;;;8.28;100.00
69630;BME280;56857;52.212;5.496;2022-12-29T07:14:39;99967.09;;;8.28;100.00
69630;BME280;56857;52.212;5.496;2022-12-29T07:17:05;99956.38;;;8.30;100.00
69630;BME280;56857;52.212;5.496;2022-12-29T07:19:32;99960.66;;;8.31;100.00
69630;BME280;56857;52.212;5.496;2022-12-29T07:21:58;99962.03;;;8.27;100.00
69630;BME280;56857;52.212;5.496;2022-12-29T07:24:25;99968.00;;;8.21;100.00
69630;BME280;56857;52.212;5.496;2022-12-29T07:26:51;99971.81;;;8.18;100.00
69630;BME280;56857;52.212;5.496;2022-12-29T07:29:17;99963.56;;;8.13;100.00
69630;BME280;56857;52.212;5.496;2022-12-29T07:31:43;99970.56;;;8.06;100.00
69630;BME280;56857;52.212;5.496;2022-12-29T07:34:10;99977.31;;;8.08;100.00
69630;BME280;56857;52.212;5.496;2022-12-29T07:36:35;99971.72;;;8.03;100.00
69630;BME280;56857;52.212;5.496;2022-12-29T07:39:02;99985.28;;;8.00;100.00
69630;BME280;56857;52.212;5.496;2022-12-29T07:41:28;99987.44;;;7.97;100.00
69630;BME280;56857;52.212;5.496;2022-12-29T07:43:54;99985.63;;;7.97;100.00
69630;BME280;56857;52.212;5.496;2022-12-29T07:46:20;99990.06;;;7.97;100.00
69630;BME280;56857;52.212;5.496;2022-12-29T07:48:46;99984.16;;;7.95;100.00
69630;BME280;56857;52.212;5.496;2022-12-29T07:51:12;99984.16;;;7.95;100.00
69630;BME280;56857;52.212;5.496;2022-12-29T07:53:38;99993.06;;;7.94;100.00
69630;BME280;56857;52.212;5.496;2022-12-29T07:56:04;99992.56;;;7.98;100.00
69630;BME280;56857;52.212;5.496;2022-12-29T07:58:31;99989.25;;;7.96;100.00
69630;BME280;56857;52.212;5.496;2022-12-29T08:00:57;99983.16;;;7.96;100.00
69630;BME280;56857;52.212;5.496;2022-12-29T08:03:23;99984.97;;;7.95;100.00
69630;BME280;56857;52.212;5.496;2022-12-29T08:05:49;99989.78;;;7.92;100.00
69630;BME280;56857;52.212;5.496;2022-12-29T08:08:15;99981.03;;;7.91;100.00
69630;BME280;56857;52.212;5.496;2022-12-29T08:10:41;99979.22;;;7.92;100.00
69630;BME280;56857;52.212;5.496;2022-12-29T08:13:07;99973.97;;;7.92;100.00
69630;BME280;56857;52.212;5.496;2022-12-29T08:15:33;99971.31;;;7.92;100.00
69630;BME280;56857;52.212;5.496;2022-12-29T08:17:59;99968.03;;;7.89;100.00
69630;BME280;56857;52.212;5.496;2022-12-29T08:20:25;99958.94;;;7.92;100.00
69630;BME280;56857;52.212;5.496;2022-12-29T08:22:51;99965.34;;;7.98;100.00
69630;BME280;56857;52.212;5.496;2022-12-29T08:25:17;99964.50;;;7.97;100.00
69630;BME280;56857;52.212;5.496;2022-12-29T08:27:43;99965.16;;;7.99;100.00
69630;BME280;56857;52.212;5.496;2022-12-29T08:30:09;99980.00;;;8.00;100.00
69630;BME280;56857;52.212;5.496;2022-12-29T08:32:35;99980.00;;;8.00;100.00
69630;BME280;56857;52.212;5.496;2022-12-29T08:35:01;99973.38;;;8.04;100.00
69630;BME280;56857;52.212;5.496;2022-12-29T08:37:27;99969.56;;;8.07;100.00
69630;BME280;56857;52.212;5.496;2022-12-29T08:39:53;99985.91;;;8.10;100.00
69630;BME280;56857;52.212;5.496;2022-12-29T08:42:19;99974.97;;;8.13;100.00
69630;BME280;56857;52.212;5.496;2022-12-29T08:44:45;99980.06;;;8.15;100.00
69630;BME280;56857;52.212;5.496;2022-12-29T08:47:11;99971.00;;;8.18;100.00
69630;BME280;56857;52.212;5.496;2022-12-29T08:49:37;99979.56;;;8.20;100.00
69630;BME280;56857;52.212;5.496;2022-12-29T08:52:03;99984.00;;;8.19;100.00
69630;BME280;56857;52.212;5.496;2022-12-29T08:54:29;99998.50;;;8.23;99.71
69630;BME280;56857;52.212;5.496;2022-12-29T08:56:55;99999.97;;;8.26;100.00
69630;BME280;56857;52.212;5.496;2022-12-29T08:59:21;99992.22;;;8.24;100.00
69630;BME280;56857;52.212;5.496;2022-12-29T09:01:47;100000.97;;;8.25;100.00
69630;BME280;56857;52.212;5.496;2022-12-29T09:04:14;100004.78;;;8.22;100.00
69630;BME280;56857;52.212;5.496;2022-12-29T09:06:40;99987.97;;;8.23;100.00
69630;BME280;56857;52.212;5.496;2022-12-29T09:09:07;99995.22;;;8.21;100.00
69630;BME280;56857;52.212;5.496;2022-12-29T09:11:33;99999.50;;;8.22;100.00
69630;BME280;56857;52.212;5.496;2022-12-29T09:13:58;100001.16;;;8.23;100.00
69630;BME280;56857;52.212;5.496;2022-12-29T09:16:24;100014.34;;;8.23;100.00
69630;BME280;56857;52.212;5.496;2022-12-29T09:18:50;100007.72;;;8.27;100.00
69630;BME280;56857;52.212;5.496;2022-12-29T09:21:16;100011.84;;;8.30;100.00
69630;BME280;56857;52.212;5.496;2022-12-29T09:23:42;100012.31;;;8.33;100.00
69630;BME280;56857;52.212;5.496;2022-12-29T09:26:09;100017.41;;;8.35;100.00
69630;BME280;56857;52.212;5.496;2022-12-29T09:28:35;100025.00;;;8.38;100.00
69630;BME280;56857;52.212;5.496;2022-12-29T09:31:02;100024.84;;;8.40;100.00
69630;BME280;56857;52.212;5.496;2022-12-29T09:33:28;100019.72;;;8.38;100.00
69630;BME280;56857;52.212;5.496;2022-12-29T09:35:55;100024.03;;;8.31;100.00
69630;BME280;56857;52.212;5.496;2022-12-29T09:38:23;100036.41;;;8.30;100.00
69630;BME280;56857;52.212;5.496;2022-12-29T09:40:59;100040.69;;;8.31;100.00
69630;BME280;56857;52.212;5.496;2022-12-29T09:48:48;100065.00;;;8.27;100.00
69630;BME280;56857;52.212;5.496;2022-12-29T09:51:20;100066.16;;;8.24;100.00
69630;BME280;56857;52.212;5.496;2022-12-29T09:53:58;100073.25;;;8.24;100.00
69630;BME280;56857;52.212;5.496;2022-12-29T09:56:26;100093.38;;;8.25;100.00
69630;BME280;56857;52.212;5.496;2022-12-29T09:59:11;100094.03;;;8.27;100.00
69630;BME280;56857;52.212;5.496;2022-12-29T10:01:52;100092.38;;;8.26;100.00
69630;BME280;56857;52.212;5.496;2022-12-29T10:04:18;100110.22;;;8.24;100.00
69630;BME280;56857;52.212;5.496;2022-12-29T10:22:57;100111.91;;;8.17;100.00
69630;BME280;56857;52.212;5.496;2022-12-29T10:25:29;100112.72;;;8.17;100.00
69630;BME280;56857;52.212;5.496;2022-12-29T10:27:59;100121.47;;;8.18;100.00
69630;BME280;56857;52.212;5.496;2022-12-29T10:30:27;100109.09;;;8.18;100.00
69630;BME280;56857;52.212;5.496;2022-12-29T10:33:03;100130.88;;;8.20;100.00
69630;BME280;56857;52.212;5.496;2022-12-29T10:35:39;100135.47;;;8.26;100.00
69630;BME280;56857;52.212;5.496;2022-12-29T10:38:25;100141.38;;;8.28;100.00
69630;BME280;56857;52.212;5.496;2022-12-29T10:40:58;100148.97;;;8.31;100.00
69630;BME280;56857;52.212;5.496;2022-12-29T10:43:30;100158.38;;;8.34;100.00
69630;BME280;56857;52.212;5.496;2022-12-29T10:46:14;100160.84;;;8.35;100.00
69630;BME280;56857;52.212;5.496;2022-12-29T10:48:41;100167.47;;;8.40;100.00
69630;BME280;56857;52.212;5.496;2022-12-29T10:51:08;100163.66;;;8.42;100.00
69630;BME280;56857;52.212;5.496;2022-12-29T10:53:47;100177.00;;;8.41;100.00
69630;BME280;56857;52.212;5.496;2022-12-29T10:56:40;100173.75;;;8.39;100.00
69630;BME280;56857;52.212;5.496;2022-12-29T10:59:22;100188.75;;;8.38;100.00
69630;BME280;56857;52.212;5.496;2022-12-29T11:07:19;100188.91;;;8.36;100.00
69630;BME280;56857;52.212;5.496;2022-12-29T11:09:46;100195.34;;;8.34;100.00
69630;BME280;56857;52.212;5.496;2022-12-29T11:12:22;100191.38;;;8.38;100.00
69630;BME280;56857;52.212;5.496;2022-12-29T11:17:44;100205.53;;;8.53;100.00
69630;BME280;56857;52.212;5.496;2022-12-29T11:20:26;100226.63;;;8.62;100.00
69630;BME280;56857;52.212;5.496;2022-12-29T11:22:53;100223.81;;;8.63;100.00
69630;BME280;56857;52.212;5.496;2022-12-29T11:25:18;100229.91;;;8.64;100.00
69630;BME280;56857;52.212;5.496;2022-12-29T11:28:00;100236.53;;;8.59;100.00
69630;BME280;56857;52.212;5.496;2022-12-29T11:30:31;100239.03;;;8.61;100.00
69630;BME280;56857;52.212;5.496;2022-12-29T11:32:57;100252.88;;;8.63;100.00
69630;BME280;56857;52.212;5.496;2022-12-29T11:35:50;100251.56;;;8.67;100.00
69630;BME280;56857;52.212;5.496;2022-12-29T11:38:20;100254.00;;;8.69;100.00
69630;BME280;56857;52.212;5.496;2022-12-29T11:40:47;100253.66;;;8.80;100.00
69630;BME280;56857;52.212;5.496;2022-12-29T11:43:26;100260.19;;;8.92;100.00
69630;BME280;56857;52.212;5.496;2022-12-29T11:45:55;100267.84;;;9.10;100.00
69630;BME280;56857;52.212;5.496;2022-12-29T11:48:21;100261.53;;;9.19;100.00
69630;BME280;56857;52.212;5.496;2022-12-29T11:50:53;100274.88;;;9.26;100.00
69630;BME280;56857;52.212;5.496;2022-12-29T11:56:21;100273.69;;;9.28;100.00
69630;BME280;56857;52.212;5.496;2022-12-29T11:58:49;100285.06;;;9.37;100.00
69630;BME280;56857;52.212;5.496;2022-12-29T12:03:57;100262.97;;;9.53;100.00
69630;BME280;56857;52.212;5.496;2022-12-29T12:06:27;100271.53;;;9.55;100.00
69630;BME280;56857;52.212;5.496;2022-12-29T12:08:56;100267.91;;;9.56;100.00
69630;BME280;56857;52.212;5.496;2022-12-29T12:11:28;100274.31;;;9.62;100.00
69630;BME280;56857;52.212;5.496;2022-12-29T12:16:32;100284.13;;;9.53;100.00
69630;BME280;56857;52.212;5.496;2022-12-29T12:19:36;100290.81;;;9.41;100.00
69630;BME280;56857;52.212;5.496;2022-12-29T12:22:12;100282.75;;;9.34;100.00
69630;BME280;56857;52.212;5.496;2022-12-29T12:30:04;100299.00;;;9.23;100.00
69630;BME280;56857;52.212;5.496;2022-12-29T12:41:11;100313.75;;;9.17;100.00
69630;BME280;56857;52.212;5.496;2022-12-29T12:44:16;100316.09;;;9.12;100.00
69630;BME280;56857;52.212;5.496;2022-12-29T12:55:21;100310.72;;;8.97;100.00
69630;BME280;56857;52.212;5.496;2022-12-29T13:00:18;100299.50;;;8.95;100.00
69630;BME280;56857;52.212;5.496;2022-12-29T13:05:42;100324.06;;;9.04;100.00
69630;BME280;56857;52.212;5.496;2022-12-29T13:16:28;100323.03;;;9.13;100.00
69630;BME280;56857;52.212;5.496;2022-12-29T13:26:58;100349.00;;;9.10;100.00
69630;BME280;56857;52.212;5.496;2022-12-29T13:29:43;100349.81;;;9.10;100.00
69630;BME280;56857;52.212;5.496;2022-12-29T13:32:15;100352.13;;;9.13;100.00
69630;BME280;56857;52.212;5.496;2022-12-29T13:35:08;100359.22;;;9.13;100.00
69630;BME280;56857;52.212;5.496;2022-12-29T13:38:03;100352.47;;;9.10;100.00
69630;BME280;56857;52.212;5.496;2022-12-29T13:40:34;100353.28;;;9.11;100.00
69630;BME280;56857;52.212;5.496;2022-12-29T13:43:02;100352.31;;;9.12;100.00
69630;BME280;56857;52.212;5.496;2022-12-29T13:45:30;100352.47;;;9.10;100.00
69630;BME280;56857;52.212;5.496;2022-12-29T13:48:17;100350.97;;;9.08;100.00
69630;BME280;56857;52.212;5.496;2022-12-29T13:50:52;100361.41;;;9.09;100.00
69630;BME280;56857;52.212;5.496;2022-12-29T13:53:28;100361.56;;;9.08;100.00
69630;BME280;56857;52.212;5.496;2022-12-29T13:56:56;100356.47;;;9.06;100.00
69630;BME280;56857;52.212;5.496;2022-12-29T14:01:55;100359.91;;;9.07;100.00
69630;BME280;56857;52.212;5.496;2022-12-29T14:04:25;100361.25;;;9.02;100.00
69630;BME280;56857;52.212;5.496;2022-12-29T14:07:00;100356.47;;;8.98;100.00
69630;BME280;56857;52.212;5.496;2022-12-29T14:12:19;100369.06;;;8.96;100.00
69630;BME280;56857;52.212;5.496;2022-12-29T14:14:46;100358.97;;;8.91;100.00
69630;BME280;56857;52.212;5.496;2022-12-29T14:17:12;100369.56;;;8.91;100.00
69630;BME280;56857;52.212;5.496;2022-12-29T14:19:43;100383.78;;;8.90;100.00
69630;BME280;56857;52.212;5.496;2022-12-29T14:22:10;100392.69;;;8.89;100.00
69630;BME280;56857;52.212;5.496;2022-12-29T14:24:46;100394.53;;;8.80;100.00
69630;BME280;56857;52.212;5.496;2022-12-29T14:34:57;100385.16;;;8.53;100.00
69630;BME280;56857;52.212;5.496;2022-12-29T14:37:36;100386.34;;;8.43;100.00
69630;BME280;56857;52.212;5.496;2022-12-29T14:40:22;100399.88;;;8.40;100.00
69630;BME280;56857;52.212;5.496;2022-12-29T14:42:50;100405.78;;;8.33;100.00
69630;BME280;56857;52.212;5.496;2022-12-29T14:47:45;100415.84;;;8.22;100.00
69630;BME280;56857;52.212;5.496;2022-12-29T14:52:48;100416.81;;;8.12;100.00
69630;BME280;56857;52.212;5.496;2022-12-29T14:57:43;100408.25;;;8.10;100.00
69630;BME280;56857;52.212;5.496;2022-12-29T15:00:22;100410.72;;;8.12;100.00
69630;BME280;56857;52.212;5.496;2022-12-29T15:03:05;100403.47;;;8.14;100.00
69630;BME280;56857;52.212;5.496;2022-12-29T15:05:41;100408.75;;;8.14;100.00
69630;BME280;56857;52.212;5.496;2022-12-29T15:08:10;100411.41;;;8.14;100.00
69630;BME280;56857;52.212;5.496;2022-12-29T15:10:48;100413.22;;;8.13;100.00
69630;BME280;56857;52.212;5.496;2022-12-29T15:13:22;100417.00;;;8.11;100.00
69630;BME280;56857;52.212;5.496;2022-12-29T15:15:48;100414.69;;;8.08;100.00
69630;BME280;56857;52.212;5.496;2022-12-29T15:18:29;100409.72;;;8.05;100.00
69630;BME280;56857;52.212;5.496;2022-12-29T15:20:58;100404.94;;;8.00;100.00
69630;BME280;56857;52.212;5.496;2022-12-29T15:23:26;100399.81;;;7.99;100.00